createdAt,value
2019-05-13T00:01:56.973Z,6.70
2019-05-13T00:04:00.433Z,5.15
2019-05-13T00:06:04.370Z,4.60
2019-05-13T00:08:08.341Z,7.00
2019-05-13T00:10:14.372Z,7.85
2019-05-13T00:12:17.570Z,5.72
2019-05-13T00:14:21.154Z,6.15
2019-05-13T00:16:24.613Z,6.40
2019-05-13T00:18:28.395Z,6.33
2019-05-13T00:20:33.831Z,6.33
2019-05-13T00:22:37.762Z,6.87
2019-05-13T00:24:43.701Z,9.50
2019-05-13T00:26:46.853Z,6.37
2019-05-13T00:28:50.321Z,5.45
2019-05-13T00:30:54.384Z,6.15
2019-05-13T00:32:58.013Z,6.90
2019-05-13T00:35:03.810Z,9.10
2019-05-13T00:37:11.278Z,5.00
2019-05-13T00:39:11.954Z,5.47
2019-05-13T00:41:15.681Z,6.50
2019-05-13T00:43:19.680Z,6.72
2019-05-13T00:45:24.504Z,7.20
2019-05-13T00:47:28.232Z,5.20
2019-05-13T00:49:31.705Z,7.55
2019-05-13T00:51:35.605Z,7.35
2019-05-13T00:53:39.138Z,5.37
2019-05-13T00:55:44.582Z,5.30
2019-05-13T00:57:48.253Z,5.90
2019-05-13T00:59:54.115Z,4.50
2019-05-13T01:01:57.485Z,5.25
2019-05-13T01:04:00.973Z,5.60
2019-05-13T01:06:04.509Z,6.47
2019-05-13T01:08:08.031Z,5.83
2019-05-13T01:10:13.368Z,6.92
2019-05-13T01:12:17.913Z,9.08
2019-05-13T01:14:23.369Z,5.17
2019-05-13T01:16:26.697Z,5.75
2019-05-13T01:18:30.465Z,6.70
2019-05-13T01:20:34.757Z,5.50
2019-05-13T01:22:38.453Z,6.55
2019-05-13T01:24:43.650Z,5.60
2019-05-13T01:26:47.441Z,8.20
2019-05-13T01:28:53.439Z,7.50
2019-05-13T01:30:56.377Z,6.55
2019-05-13T01:32:59.918Z,11.35
2019-05-13T01:35:04.877Z,5.53
2019-05-13T01:37:08.411Z,6.97
2019-05-13T01:39:13.910Z,7.20
2019-05-13T01:41:17.124Z,5.05
2019-05-13T01:43:20.935Z,5.72
2019-05-13T01:45:24.466Z,7.87
2019-05-13T01:47:28.308Z,6.00
2019-05-13T01:49:33.725Z,6.78
2019-05-13T01:51:37.113Z,5.78
2019-05-13T01:53:40.573Z,3.90
2019-05-13T01:55:44.388Z,7.15
2019-05-13T01:57:48.137Z,3.98
2019-05-13T01:59:53.781Z,4.67
2019-05-13T02:01:58.082Z,3.85
2019-05-13T02:04:04.105Z,5.53
2019-05-13T02:06:07.171Z,4.70
2019-05-13T02:08:10.825Z,6.08
2019-05-13T02:10:16.340Z,5.58
2019-05-13T02:12:19.977Z,5.80
2019-05-13T02:14:23.770Z,4.05
2019-05-13T02:16:27.713Z,7.00
2019-05-13T02:18:33.939Z,5.60
2019-05-13T02:20:37.030Z,9.85
2019-05-13T02:22:40.488Z,5.15
2019-05-13T02:24:44.684Z,6.00
2019-05-13T02:26:48.470Z,7.60
2019-05-13T02:28:53.975Z,5.62
2019-05-13T02:30:57.283Z,8.65
2019-05-13T02:33:02.843Z,6.70
2019-05-13T02:35:06.991Z,5.03
2019-05-13T02:37:12.789Z,7.28
2019-05-13T02:39:15.832Z,8.03
2019-05-13T02:41:22.574Z,5.25
2019-05-13T02:43:25.121Z,6.60
2019-05-13T02:45:28.823Z,5.80
2019-05-13T02:47:33.148Z,5.78
2019-05-13T02:49:36.782Z,5.58
2019-05-13T02:51:42.899Z,7.22
2019-05-13T02:53:45.930Z,4.40
2019-05-13T02:55:52.474Z,5.90
2019-05-13T02:57:55.843Z,4.42
2019-05-13T02:59:59.397Z,4.37
2019-05-13T03:02:03.883Z,4.95
2019-05-13T03:04:12.865Z,4.67
2019-05-13T03:06:15.827Z,5.83
2019-05-13T03:08:38.503Z,4.25
2019-05-13T03:10:25.193Z,6.42
2019-05-13T03:12:32.263Z,4.78
2019-05-13T03:14:35.147Z,4.42
2019-05-13T03:16:42.756Z,5.10
2019-05-13T03:18:46.509Z,5.15
2019-05-13T03:20:53.027Z,4.33
2019-05-13T03:22:55.230Z,5.20
2019-05-13T03:25:02.828Z,5.15
2019-05-13T03:27:04.250Z,6.55
2019-05-13T03:29:08.117Z,6.87
2019-05-13T03:31:17.088Z,5.87
2019-05-13T03:33:19.789Z,12.40
2019-05-13T03:35:27.244Z,4.03
2019-05-13T03:37:28.160Z,5.47
2019-05-13T03:39:33.347Z,5.03
2019-05-13T03:41:42.396Z,6.35
2019-05-13T03:43:45.001Z,6.90
2019-05-13T03:45:52.629Z,5.60
2019-05-13T03:47:56.952Z,6.83
2019-05-13T03:50:03.637Z,6.70
2019-05-13T03:52:06.145Z,7.60
2019-05-13T03:54:12.856Z,8.95
2019-05-13T03:56:15.706Z,6.85
2019-05-13T03:58:19.344Z,6.90
2019-05-13T04:00:23.785Z,4.67
2019-05-13T04:02:27.633Z,7.08
2019-05-13T04:04:32.440Z,7.03
2019-05-13T04:06:36.490Z,7.15
2019-05-13T04:08:42.982Z,4.80
2019-05-13T04:10:45.617Z,5.25
2019-05-13T04:12:52.434Z,6.97
2019-05-13T04:14:55.389Z,6.03
2019-05-13T04:17:02.476Z,5.55
2019-05-13T04:19:04.505Z,6.20
2019-05-13T04:21:08.209Z,5.47
2019-05-13T04:23:12.879Z,5.22
2019-05-13T04:25:16.723Z,7.03
2019-05-13T04:27:23.336Z,6.03
2019-05-13T04:29:25.956Z,6.42
2019-05-13T04:31:33.054Z,7.67
2019-05-13T04:33:34.968Z,5.85
2019-05-13T04:35:38.594Z,7.50
2019-05-13T04:37:43.157Z,8.30
2019-05-13T04:39:51.550Z,4.70
2019-05-13T04:41:53.060Z,7.15
2019-05-13T04:43:56.715Z,7.15
2019-05-13T04:46:02.529Z,4.72
2019-05-13T04:48:06.037Z,6.85
2019-05-13T04:50:12.583Z,6.85
2019-05-13T04:52:15.367Z,12.82
2019-05-13T04:54:22.299Z,6.45
2019-05-13T04:56:24.090Z,5.85
2019-05-13T04:58:28.172Z,5.70
2019-05-13T05:01:08.946Z,7.47
2019-05-13T05:03:45.612Z,7.97
2019-05-13T05:05:52.468Z,4.78
2019-05-13T05:07:57.614Z,8.90
2019-05-13T05:10:30.511Z,6.85
2019-05-13T05:12:42.508Z,9.55
2019-05-13T05:17:22.300Z,8.10
2019-05-13T05:20:03.657Z,7.37
2019-05-13T05:22:22.156Z,6.60
2019-05-13T05:27:13.194Z,8.38
2019-05-13T05:29:42.205Z,11.12
2019-05-13T05:32:06.821Z,8.33
2019-05-13T05:34:16.641Z,7.55
2019-05-13T05:39:01.695Z,9.88
2019-05-13T05:41:07.092Z,11.97
2019-05-13T05:43:11.635Z,7.45
2019-05-13T05:45:15.860Z,7.03
2019-05-13T05:47:21.621Z,7.37
2019-05-13T05:49:26.473Z,8.50
2019-05-13T05:51:31.491Z,7.25
2019-05-13T05:53:35.581Z,6.33
2019-05-13T05:55:41.357Z,13.45
2019-05-13T05:57:46.806Z,7.17
2019-05-13T05:59:51.934Z,7.67
2019-05-13T06:01:56.751Z,13.25
2019-05-13T06:04:01.579Z,11.15
2019-05-13T06:06:05.441Z,6.58
2019-05-13T06:08:11.428Z,7.30
2019-05-13T06:10:15.437Z,9.63
2019-05-13T06:12:21.388Z,11.33
2019-05-13T06:14:24.746Z,14.05
2019-05-13T06:16:28.696Z,8.45
2019-05-13T06:18:32.716Z,7.78
2019-05-13T06:20:36.733Z,10.48
2019-05-13T06:22:42.384Z,9.28
2019-05-13T06:24:45.733Z,9.38
2019-05-13T06:26:49.376Z,9.15
2019-05-13T06:28:52.912Z,10.45
2019-05-13T06:30:56.374Z,11.18
2019-05-13T06:33:01.609Z,15.03
2019-05-13T06:35:06.028Z,12.00
2019-05-13T06:37:11.431Z,10.23
2019-05-13T06:39:14.683Z,10.35
2019-05-13T06:41:18.229Z,12.25
2019-05-13T06:43:21.729Z,10.35
2019-05-13T06:45:25.339Z,9.03
2019-05-13T06:47:28.877Z,9.30
2019-05-13T06:49:32.707Z,8.50
2019-05-13T06:51:36.437Z,10.32
2019-05-13T06:53:41.447Z,13.00
2019-05-13T06:55:45.198Z,10.60
2019-05-13T06:57:51.507Z,9.43
2019-05-13T06:59:54.470Z,12.53
2019-05-13T07:01:57.960Z,14.98
2019-05-13T07:04:02.525Z,13.80
2019-05-13T07:06:06.273Z,12.90
2019-05-13T07:08:12.029Z,10.15
2019-05-13T07:10:15.545Z,12.37
2019-05-13T07:12:21.733Z,8.50
2019-05-13T07:14:24.847Z,14.05
2019-05-13T07:16:28.416Z,13.53
2019-05-13T07:18:32.309Z,14.50
2019-05-13T07:20:36.298Z,15.28
2019-05-13T07:22:42.086Z,13.48
2019-05-13T07:24:45.017Z,14.43
2019-05-13T07:26:48.529Z,15.35
2019-05-13T07:28:52.915Z,16.23
2019-05-13T07:30:57.344Z,12.33
2019-05-13T07:33:01.742Z,15.13
2019-05-13T07:35:06.723Z,12.80
2019-05-13T07:37:11.366Z,14.38
2019-05-13T07:39:15.050Z,12.13
2019-05-13T07:41:33.121Z,12.58
2019-05-13T07:43:24.749Z,12.82
2019-05-13T07:45:28.250Z,14.10
2019-05-13T07:47:31.799Z,14.58
2019-05-13T07:49:35.446Z,16.48
2019-05-13T07:51:41.810Z,15.08
2019-05-13T07:53:44.197Z,21.00
2019-05-13T07:55:47.744Z,18.48
2019-05-13T07:57:51.618Z,13.55
2019-05-13T07:59:55.258Z,14.15
2019-05-13T08:01:59.327Z,12.07
2019-05-13T08:04:04.349Z,20.75
2019-05-13T08:06:07.812Z,19.52
2019-05-13T08:08:11.886Z,23.80
2019-05-13T08:10:16.291Z,18.17
2019-05-13T08:12:21.612Z,15.88
2019-05-13T08:14:25.342Z,23.42
2019-05-13T08:16:32.113Z,20.27
2019-05-13T08:18:35.145Z,40.23
2019-05-13T08:20:38.858Z,21.07
2019-05-13T08:22:42.618Z,10.88
2019-05-13T08:24:46.236Z,38.83
2019-05-13T08:26:52.489Z,50.43
2019-05-13T08:29:01.622Z,44.00
2019-05-13T08:31:02.044Z,18.98
2019-05-13T08:33:06.121Z,16.07
2019-05-13T08:35:12.444Z,26.90
2019-05-13T08:37:16.039Z,12.90
2019-05-13T08:39:21.666Z,26.07
2019-05-13T08:41:24.767Z,23.62
2019-05-13T08:43:28.329Z,11.93
2019-05-13T08:45:31.808Z,32.85
2019-05-13T08:47:35.441Z,15.32
2019-05-13T08:49:41.372Z,19.42
2019-05-13T08:51:45.241Z,7.58
2019-05-13T08:53:48.781Z,5.65
2019-05-13T08:55:52.634Z,11.57
2019-05-13T08:57:56.513Z,6.50
2019-05-13T09:00:04.835Z,10.65
2019-05-13T09:02:05.565Z,6.12
2019-05-13T09:04:11.843Z,7.28
2019-05-13T09:06:14.917Z,8.18
2019-05-13T09:08:22.170Z,27.82
2019-05-13T09:10:25.237Z,10.80
2019-05-13T09:12:33.277Z,22.87
2019-05-13T09:14:34.509Z,28.35
2019-05-13T09:16:38.326Z,25.97
2019-05-13T09:18:42.775Z,22.35
2019-05-13T09:20:46.353Z,370.30
2019-05-13T09:22:51.459Z,422.90
2019-05-13T09:24:55.156Z,105.07
2019-05-13T09:26:58.804Z,343.10
2019-05-13T09:29:02.362Z,221.55
2019-05-13T09:31:06.042Z,146.85
2019-05-13T09:33:11.498Z,250.35
2019-05-13T09:35:15.417Z,1018.20
2019-05-13T09:37:19.234Z,998.80
2019-05-13T09:39:23.110Z,1058.00
2019-05-13T09:41:26.725Z,77.78
2019-05-13T09:43:31.455Z,92.00
2019-05-13T09:45:35.617Z,185.55
2019-05-13T09:47:41.574Z,130.87
2019-05-13T09:49:44.686Z,147.25
2019-05-13T09:51:48.594Z,67.72
2019-05-13T09:53:52.494Z,96.80
2019-05-13T09:55:56.038Z,48.63
2019-05-13T09:58:02.414Z,11.73
2019-05-13T10:00:12.170Z,12.93
2019-05-13T10:02:16.989Z,13.50
2019-05-13T10:04:22.241Z,37.95
2019-05-13T10:06:25.778Z,20.12
2019-05-13T10:08:32.604Z,11.68
2019-05-13T10:10:36.190Z,15.35
2019-05-13T10:12:42.126Z,10.72
2019-05-13T10:14:44.990Z,13.00
2019-05-13T10:16:48.726Z,10.60
2019-05-13T10:18:52.819Z,11.03
2019-05-13T10:20:59.158Z,12.60
2019-05-13T10:23:02.706Z,17.20
2019-05-13T10:25:07.489Z,11.33
2019-05-13T10:27:12.377Z,11.65
2019-05-13T10:29:16.282Z,7.97
2019-05-13T10:31:21.965Z,9.18
2019-05-13T10:33:25.631Z,9.43
2019-05-13T10:35:31.688Z,8.05
2019-05-13T10:37:35.221Z,8.05
2019-05-13T10:39:38.797Z,13.58
2019-05-13T10:41:42.744Z,6.92
2019-05-13T10:43:46.582Z,11.22
2019-05-13T10:45:52.213Z,20.20
2019-05-13T10:47:55.823Z,7.72
2019-05-13T10:50:02.527Z,7.85
2019-05-13T10:52:04.625Z,10.08
2019-05-13T10:54:08.301Z,9.03
2019-05-13T10:56:11.856Z,9.15
2019-05-13T10:58:15.586Z,8.83
2019-05-13T11:00:22.874Z,17.10
2019-05-13T11:02:26.533Z,7.00
2019-05-13T11:04:32.050Z,14.50
2019-05-13T11:06:35.457Z,7.70
2019-05-13T11:08:42.210Z,7.28
2019-05-13T11:10:45.665Z,10.53
2019-05-13T11:12:51.688Z,9.90
2019-05-13T11:14:55.471Z,9.58
2019-05-13T11:17:01.150Z,28.92
2019-05-13T11:19:04.606Z,7.33
2019-05-13T11:21:08.155Z,10.75
2019-05-13T11:23:12.436Z,8.40
2019-05-13T11:25:16.338Z,9.20
2019-05-13T11:27:20.030Z,7.70
2019-05-13T11:29:25.622Z,8.15
2019-05-13T11:31:32.546Z,10.68
2019-05-13T11:33:34.901Z,9.00
2019-05-13T11:35:38.524Z,9.13
2019-05-13T11:37:43.544Z,10.65
2019-05-13T11:39:47.900Z,9.43
2019-05-13T11:41:53.134Z,8.85
2019-05-13T11:44:12.034Z,9.58
2019-05-13T11:46:02.594Z,7.67
2019-05-13T11:48:06.681Z,8.85
2019-05-13T11:50:11.842Z,7.87
2019-05-13T11:52:16.561Z,12.18
2019-05-13T11:54:22.886Z,8.33
2019-05-13T11:56:26.762Z,6.47
2019-05-13T11:58:32.494Z,6.25
2019-05-13T12:00:53.097Z,8.85
2019-05-13T12:02:57.074Z,6.42
2019-05-13T12:05:03.817Z,4.85
2019-05-13T12:07:07.190Z,13.10
2019-05-13T12:09:12.977Z,8.65
2019-05-13T12:11:15.982Z,7.65
2019-05-13T12:13:22.698Z,4.87
2019-05-13T12:15:39.181Z,5.87
2019-05-13T12:17:33.994Z,6.37
2019-05-13T12:19:37.294Z,7.95
2019-05-13T12:21:45.905Z,8.33
2019-05-13T12:23:46.539Z,7.95
2019-05-13T12:25:52.889Z,50.00
2019-05-13T12:27:56.293Z,6.22
2019-05-13T12:30:02.757Z,8.85
2019-05-13T12:32:05.471Z,13.48
2019-05-13T12:34:12.846Z,11.20
2019-05-13T12:36:17.995Z,38.78
2019-05-13T12:38:21.990Z,7.28
2019-05-13T12:40:25.453Z,10.48
2019-05-13T12:42:29.007Z,11.63
2019-05-13T12:44:33.390Z,6.92
2019-05-13T12:46:37.069Z,15.85
2019-05-13T12:48:40.713Z,6.28
2019-05-13T12:50:44.192Z,7.80
2019-05-13T12:52:47.733Z,8.00
2019-05-13T12:54:52.828Z,7.03
2019-05-13T12:56:56.849Z,9.45
2019-05-13T12:59:02.998Z,6.47
2019-05-13T13:01:05.643Z,7.95
2019-05-13T13:03:09.661Z,7.97
2019-05-13T13:05:20.684Z,6.53
2019-05-13T13:09:26.373Z,8.65
2019-05-13T13:11:32.360Z,9.13
2019-05-13T13:13:57.492Z,6.28
2019-05-13T13:15:48.122Z,7.33
2019-05-13T13:17:47.210Z,15.65
2019-05-13T13:19:54.861Z,5.92
2019-05-13T13:24:04.452Z,7.72
2019-05-13T13:26:15.322Z,8.38
2019-05-13T13:28:15.513Z,7.55
2019-05-13T13:30:19.634Z,14.80
2019-05-13T13:32:24.709Z,8.93
2019-05-13T13:34:28.400Z,8.33
2019-05-13T13:36:33.434Z,7.40
2019-05-13T13:38:37.330Z,6.37
2019-05-13T13:40:45.559Z,7.45
2019-05-13T13:42:46.691Z,6.30
2019-05-13T13:44:53.820Z,5.70
2019-05-13T13:46:56.314Z,4.90
2019-05-13T13:49:00.131Z,14.87
2019-05-13T13:51:05.246Z,4.80
2019-05-13T13:53:13.509Z,5.22
2019-05-13T13:57:25.535Z,5.65
2019-05-13T13:59:26.540Z,5.50
2019-05-13T14:01:33.301Z,3.65
2019-05-13T14:03:35.660Z,6.22
2019-05-13T14:05:42.818Z,13.83
2019-05-13T14:06:52.391Z,5.85
2019-05-13T14:06:59.165Z,11.12
2019-05-13T14:07:45.746Z,8.00
2019-05-13T14:09:51.319Z,18.90
2019-05-13T14:11:54.725Z,14.55
2019-05-13T14:13:58.195Z,15.83
2019-05-13T14:16:02.077Z,52.15
2019-05-13T14:18:05.951Z,20.08
2019-05-13T14:20:10.133Z,10.30
2019-05-13T14:22:13.674Z,9.93
2019-05-13T14:24:17.214Z,4.65
2019-05-13T14:26:24.101Z,7.92
2019-05-13T14:28:27.639Z,10.03
2019-05-13T14:30:31.364Z,5.35
2019-05-13T14:32:35.178Z,2.12
2019-05-13T14:34:38.744Z,4.67
2019-05-13T14:36:42.309Z,3.12
2019-05-13T14:38:45.845Z,4.62
2019-05-13T14:40:51.726Z,7.58
2019-05-13T14:42:54.588Z,4.55
2019-05-13T14:44:58.485Z,8.00
2019-05-13T14:47:02.362Z,4.25
2019-05-13T14:49:06.386Z,4.78
2019-05-13T14:51:12.274Z,4.70
2019-05-13T14:53:16.221Z,4.20
2019-05-13T14:55:21.480Z,4.37
2019-05-13T14:57:25.974Z,5.97
2019-05-13T14:59:31.478Z,4.28
2019-05-13T15:01:35.227Z,2.55
2019-05-13T15:03:38.753Z,4.12
2019-05-13T15:05:44.858Z,3.80
2019-05-13T15:07:48.683Z,5.37
2019-05-13T15:09:52.205Z,3.87
2019-05-13T15:11:56.075Z,5.97
2019-05-13T15:14:02.226Z,6.95
2019-05-13T15:16:04.777Z,3.40
2019-05-13T15:18:09.718Z,5.67
2019-05-13T15:20:13.890Z,9.08
2019-05-13T15:22:17.905Z,4.17
2019-05-13T15:24:21.527Z,3.98
2019-05-13T15:26:28.149Z,5.03
2019-05-13T15:28:32.098Z,5.10
2019-05-13T15:30:35.726Z,7.75
2019-05-13T15:32:41.877Z,4.03
2019-05-13T15:34:44.818Z,4.22
2019-05-13T15:36:50.764Z,3.60
2019-05-13T15:38:54.413Z,5.37
2019-05-13T15:40:58.021Z,6.55
2019-05-13T15:43:02.458Z,3.45
2019-05-13T15:45:07.536Z,4.33
2019-05-13T15:47:22.916Z,5.90
2019-05-13T15:49:17.117Z,19.17
2019-05-13T15:51:22.264Z,54.33
2019-05-13T15:53:26.252Z,19.80
2019-05-13T15:55:29.906Z,34.10
2019-05-13T15:57:34.981Z,40.10
2019-05-13T15:59:41.368Z,39.80
2019-05-13T16:01:45.442Z,32.67
2019-05-13T16:03:49.030Z,33.50
2019-05-13T16:05:52.941Z,28.45
2019-05-13T16:07:56.489Z,30.75
2019-05-13T16:10:02.025Z,27.25
2019-05-13T16:12:05.636Z,18.75
2019-05-13T16:14:11.415Z,12.73
2019-05-13T16:16:14.843Z,30.10
2019-05-13T16:18:19.260Z,30.17
2019-05-13T16:20:23.289Z,16.32
2019-05-13T16:22:28.070Z,64.00
2019-05-13T16:24:32.278Z,171.15
2019-05-13T16:26:35.941Z,121.17
2019-05-13T16:28:41.877Z,198.62
2019-05-13T16:30:46.065Z,31.68
2019-05-13T16:32:52.076Z,43.25
2019-05-13T16:34:55.410Z,27.07
2019-05-13T16:37:01.636Z,28.40
2019-05-13T16:39:06.369Z,26.00
2019-05-13T16:41:12.530Z,32.17
2019-05-13T16:43:16.815Z,12.15
2019-05-13T16:45:21.831Z,32.40
2019-05-13T16:47:25.565Z,28.40
2019-05-13T16:49:29.145Z,60.63
2019-05-13T16:51:32.918Z,32.20
2019-05-13T16:53:36.475Z,118.87
2019-05-13T16:55:41.697Z,26.00
2019-05-13T16:57:45.842Z,32.65
2019-05-13T16:59:51.737Z,37.83
2019-05-13T17:01:55.105Z,32.10
2019-05-13T17:03:58.586Z,52.33
2019-05-13T17:06:02.412Z,35.23
2019-05-13T17:08:06.381Z,30.85
2019-05-13T17:10:12.472Z,36.38
2019-05-13T17:12:16.274Z,29.57
2019-05-13T17:14:21.582Z,24.45
2019-05-13T17:16:25.280Z,30.72
2019-05-13T17:18:29.186Z,21.45
2019-05-13T17:20:33.113Z,32.70
2019-05-13T17:22:37.526Z,61.02
2019-05-13T17:24:42.652Z,63.75
2019-05-13T17:26:47.280Z,87.65
2019-05-13T17:28:51.952Z,87.45
2019-05-13T17:30:55.994Z,69.82
2019-05-13T17:33:02.099Z,49.35
2019-05-13T17:35:06.360Z,53.25
2019-05-13T17:37:11.699Z,71.50
2019-05-13T17:39:15.481Z,75.03
2019-05-13T17:41:21.250Z,41.50
2019-05-13T17:43:24.290Z,28.42
2019-05-13T17:45:27.835Z,43.38
2019-05-13T17:47:31.753Z,51.13
2019-05-13T17:49:35.742Z,48.95
2019-05-13T17:51:39.659Z,47.20
2019-05-13T17:53:43.261Z,64.87
2019-05-13T17:55:47.145Z,91.80
2019-05-13T17:57:51.669Z,102.47
2019-05-13T17:59:55.219Z,123.75
2019-05-13T18:01:58.907Z,104.32
2019-05-13T18:04:02.564Z,78.62
2019-05-13T18:06:07.483Z,74.12
2019-05-13T18:08:11.360Z,56.00
2019-05-13T18:10:19.157Z,57.43
2019-05-13T18:12:22.894Z,44.77
2019-05-13T18:14:26.907Z,31.42
2019-05-13T18:16:32.410Z,22.42
2019-05-13T18:18:46.288Z,29.48
2019-05-13T18:20:41.657Z,30.25
2019-05-13T18:22:47.660Z,60.03
2019-05-13T18:24:51.883Z,59.08
2019-05-13T18:26:55.962Z,71.65
2019-05-13T18:29:02.653Z,66.65
2019-05-13T18:31:06.533Z,45.33
2019-05-13T18:33:11.784Z,51.45
2019-05-13T18:35:15.891Z,50.50
2019-05-13T18:37:22.003Z,51.73
2019-05-13T18:39:27.010Z,57.83
2019-05-13T18:41:31.664Z,57.20
2019-05-13T18:43:35.315Z,53.17
2019-05-13T18:45:38.943Z,48.10
2019-05-13T18:47:43.768Z,52.08
2019-05-13T18:49:47.420Z,36.48
2019-05-13T18:51:51.418Z,29.48
2019-05-13T18:53:54.952Z,24.47
2019-05-13T18:55:58.818Z,24.47
2019-05-13T18:58:02.286Z,22.20
2019-05-13T19:00:07.097Z,29.27
2019-05-13T19:02:12.250Z,29.98
2019-05-13T19:04:16.014Z,31.87
2019-05-13T19:06:22.215Z,36.53
2019-05-13T19:08:27.538Z,56.28
2019-05-13T19:10:31.356Z,40.88
2019-05-13T19:12:35.414Z,56.80
2019-05-13T19:14:41.203Z,33.02
2019-05-13T19:16:44.507Z,42.00
2019-05-13T19:18:48.177Z,76.55
2019-05-13T19:20:53.285Z,122.30
2019-05-13T19:22:56.937Z,51.33
2019-05-13T19:25:01.151Z,40.92
2019-05-13T19:27:06.105Z,30.12
2019-05-13T19:29:11.497Z,41.00
2019-05-13T19:31:15.441Z,38.60
2019-05-13T19:33:19.347Z,28.00
2019-05-13T19:35:23.273Z,28.42
2019-05-13T19:37:27.670Z,24.90
2019-05-13T19:39:31.885Z,30.90
2019-05-13T19:41:35.525Z,36.35
2019-05-13T19:43:39.146Z,43.23
2019-05-13T19:45:42.973Z,49.63
2019-05-13T19:47:47.601Z,193.65
2019-05-13T19:49:52.335Z,208.55
2019-05-13T19:51:56.564Z,62.05
2019-05-13T19:54:01.260Z,145.62
2019-05-13T19:56:05.021Z,36.33
2019-05-13T19:58:08.553Z,19.32
2019-05-13T20:00:14.219Z,26.73
2019-05-13T20:02:18.242Z,28.98
2019-05-13T20:04:21.904Z,27.27
2019-05-13T20:06:25.817Z,24.00
2019-05-13T20:08:31.834Z,34.08
2019-05-13T20:10:35.257Z,34.90
2019-05-13T20:12:38.729Z,27.52
2019-05-13T20:14:43.150Z,53.68
2019-05-13T20:16:46.684Z,48.33
2019-05-13T20:18:51.772Z,266.98
2019-05-13T20:20:55.809Z,52.45
2019-05-13T20:23:01.408Z,22.55
2019-05-13T20:25:06.200Z,92.97
2019-05-13T20:27:11.839Z,73.83
2019-05-13T20:29:15.322Z,24.23
2019-05-13T20:31:19.131Z,20.62
2019-05-13T20:33:23.024Z,47.20
2019-05-13T20:35:26.565Z,58.70
2019-05-13T20:37:32.047Z,42.53
2019-05-13T20:39:36.361Z,35.52
2019-05-13T20:41:41.420Z,85.62
2019-05-13T20:43:45.909Z,276.75
2019-05-13T20:45:51.799Z,220.45
2019-05-13T20:47:55.388Z,104.65
2019-05-13T20:50:02.088Z,272.12
2019-05-13T20:52:04.524Z,131.12
2019-05-13T20:54:08.138Z,95.87
2019-05-13T20:56:11.695Z,231.95
2019-05-13T20:58:16.150Z,48.83
2019-05-13T21:00:20.036Z,59.60
2019-05-13T21:02:23.942Z,96.12
2019-05-13T21:04:27.884Z,25.52
2019-05-13T21:06:31.652Z,123.87
2019-05-13T21:08:35.658Z,126.07
2019-05-13T21:10:42.198Z,61.80
2019-05-13T21:12:45.621Z,53.40
2019-05-13T21:14:51.226Z,52.75
2019-05-13T21:16:54.829Z,76.62
2019-05-13T21:18:58.441Z,62.08
2019-05-13T21:21:02.089Z,54.23
2019-05-13T21:23:05.694Z,41.50
2019-05-13T21:25:10.373Z,46.10
2019-05-13T21:27:14.246Z,61.70
2019-05-13T21:29:18.078Z,44.80
2019-05-13T21:31:21.656Z,45.88
2019-05-13T21:33:25.206Z,43.02
2019-05-13T21:35:31.523Z,35.50
2019-05-13T21:37:34.602Z,22.10
2019-05-13T21:39:38.530Z,29.32
2019-05-13T21:41:42.202Z,36.77
2019-05-13T21:43:46.031Z,30.52
2019-05-13T21:45:52.096Z,24.87
2019-05-13T21:47:54.825Z,58.20
2019-05-13T21:49:58.575Z,43.83
2019-05-13T21:52:02.219Z,22.17
2019-05-13T21:54:05.790Z,13.65
2019-05-13T21:56:09.318Z,15.88
2019-05-13T21:58:14.176Z,17.62
2019-05-13T22:00:23.444Z,15.25
2019-05-13T22:02:26.786Z,24.20
2019-05-13T22:04:31.194Z,29.10
2019-05-13T22:06:35.507Z,39.78
2019-05-13T22:08:41.275Z,25.05
2019-05-13T22:10:45.322Z,24.12
2019-05-13T22:12:48.989Z,17.37
2019-05-13T22:14:52.553Z,15.98
2019-05-13T22:16:56.607Z,19.00
2019-05-13T22:19:01.497Z,19.37
2019-05-13T22:21:05.429Z,17.65
2019-05-13T22:23:09.353Z,17.17
2019-05-13T22:25:12.881Z,16.35
2019-05-13T22:27:16.502Z,17.85
2019-05-13T22:29:23.019Z,14.00
2019-05-13T22:31:25.463Z,13.83
2019-05-13T22:33:28.993Z,16.12
2019-05-13T22:35:32.478Z,19.05
2019-05-13T22:37:36.421Z,14.28
2019-05-13T22:39:42.070Z,11.35
2019-05-13T22:41:45.452Z,13.35
2019-05-13T22:43:55.647Z,10.18
2019-05-13T22:45:54.644Z,14.50
2019-05-13T22:47:58.523Z,13.62
2019-05-13T22:50:02.304Z,16.62
2019-05-13T22:52:05.966Z,15.75
2019-05-13T22:54:11.649Z,14.35
2019-05-13T22:56:14.826Z,24.55
2019-05-13T22:58:18.327Z,21.77
2019-05-13T23:00:23.267Z,16.95
2019-05-13T23:02:26.781Z,14.95
2019-05-13T23:04:31.363Z,13.13
2019-05-13T23:06:35.449Z,16.00
2019-05-13T23:08:39.333Z,15.98
2019-05-13T23:10:43.138Z,15.55
2019-05-13T23:12:46.612Z,16.40
2019-05-13T23:14:52.099Z,22.93
2019-05-13T23:16:55.665Z,20.75
2019-05-13T23:18:59.469Z,17.92
2019-05-13T23:21:03.403Z,20.52
2019-05-13T23:23:06.933Z,17.10
2019-05-13T23:25:12.181Z,22.90
2019-05-13T23:27:16.210Z,17.95
2019-05-13T23:29:21.421Z,25.40
2019-05-13T23:31:25.009Z,15.10
2019-05-13T23:33:28.705Z,19.98
2019-05-13T23:35:32.521Z,21.93
2019-05-13T23:37:36.057Z,18.45
2019-05-13T23:39:41.543Z,20.02
2019-05-13T23:41:44.697Z,21.35
2019-05-13T23:43:48.174Z,23.42
2019-05-13T23:45:52.075Z,23.55
2019-05-13T23:47:55.981Z,19.90
2019-05-13T23:50:01.718Z,22.82
2019-05-13T23:52:05.217Z,19.92
2019-05-13T23:54:09.025Z,20.88
2019-05-13T23:56:12.490Z,17.60
2019-05-13T23:58:16.113Z,22.90
